sensor_id;sensor_type;location;lat;lon;timestamp;P1;durP1;ratioP1;P2;durP2;ratioP2
10677;SDS011;5387;48.722;9.110;2023-07-29T00:01:42;1.20;;;1.10;;
10677;SDS011;5387;48.722;9.110;2023-07-29T00:04:09;1.50;;;1.40;;
10677;SDS011;5387;48.722;9.110;2023-07-29T00:06:36;2.15;;;1.30;;
10677;SDS011;5387;48.722;9.110;2023-07-29T00:09:03;1.42;;;1.40;;
10677;SDS011;5387;48.722;9.110;2023-07-29T00:11:29;2.67;;;1.40;;
10677;SDS011;5387;48.722;9.110;2023-07-29T00:14:00;1.27;;;1.27;;
10677;SDS011;5387;48.722;9.110;2023-07-29T00:16:26;3.13;;;1.40;;
10677;SDS011;5387;48.722;9.110;2023-07-29T00:18:53;1.55;;;1.45;;
10677;SDS011;5387;48.722;9.110;2023-07-29T00:21:20;1.65;;;1.55;;
10677;SDS011;5387;48.722;9.110;2023-07-29T00:23:47;2.75;;;1.55;;
10677;SDS011;5387;48.722;9.110;2023-07-29T00:26:14;3.90;;;1.95;;
10677;SDS011;5387;48.722;9.110;2023-07-29T00:28:40;1.65;;;1.55;;
10677;SDS011;5387;48.722;9.110;2023-07-29T00:31:09;1.73;;;1.63;;
10677;SDS011;5387;48.722;9.110;2023-07-29T00:33:35;3.63;;;1.27;;
10677;SDS011;5387;48.722;9.110;2023-07-29T00:36:02;1.90;;;1.77;;
10677;SDS011;5387;48.722;9.110;2023-07-29T00:38:29;4.07;;;2.08;;
10677;SDS011;5387;48.722;9.110;2023-07-29T00:40:56;3.45;;;2.15;;
10677;SDS011;5387;48.722;9.110;2023-07-29T00:43:23;2.55;;;1.40;;
10677;SDS011;5387;48.722;9.110;2023-07-29T00:45:50;1.85;;;1.52;;
10677;SDS011;5387;48.722;9.110;2023-07-29T00:48:19;1.70;;;1.60;;
10677;SDS011;5387;48.722;9.110;2023-07-29T00:50:46;1.98;;;1.52;;
10677;SDS011;5387;48.722;9.110;2023-07-29T00:53:13;3.17;;;1.60;;
10677;SDS011;5387;48.722;9.110;2023-07-29T00:55:40;4.85;;;2.75;;
10677;SDS011;5387;48.722;9.110;2023-07-29T00:58:07;1.95;;;1.65;;
10677;SDS011;5387;48.722;9.110;2023-07-29T01:00:34;1.70;;;1.60;;
10677;SDS011;5387;48.722;9.110;2023-07-29T01:03:01;1.63;;;1.52;;
10677;SDS011;5387;48.722;9.110;2023-07-29T01:05:31;1.50;;;1.40;;
10677;SDS011;5387;48.722;9.110;2023-07-29T01:08:04;2.45;;;1.70;;
10677;SDS011;5387;48.722;9.110;2023-07-29T01:10:37;1.50;;;1.40;;
10677;SDS011;5387;48.722;9.110;2023-07-29T01:13:13;1.98;;;1.50;;
10677;SDS011;5387;48.722;9.110;2023-07-29T01:15:46;1.63;;;1.40;;
10677;SDS011;5387;48.722;9.110;2023-07-29T01:18:21;1.38;;;1.27;;
10677;SDS011;5387;48.722;9.110;2023-07-29T01:20:50;2.60;;;1.67;;
10677;SDS011;5387;48.722;9.110;2023-07-29T01:23:24;2.78;;;1.63;;
10677;SDS011;5387;48.722;9.110;2023-07-29T01:25:52;1.42;;;1.30;;
10677;SDS011;5387;48.722;9.110;2023-07-29T01:28:18;3.83;;;1.70;;
10677;SDS011;5387;48.722;9.110;2023-07-29T01:30:45;1.45;;;1.38;;
10677;SDS011;5387;48.722;9.110;2023-07-29T01:33:20;3.38;;;1.40;;
10677;SDS011;5387;48.722;9.110;2023-07-29T01:35:54;3.97;;;1.50;;
10677;SDS011;5387;48.722;9.110;2023-07-29T01:38:27;1.55;;;1.42;;
10677;SDS011;5387;48.722;9.110;2023-07-29T01:40:58;3.17;;;1.58;;
10677;SDS011;5387;48.722;9.110;2023-07-29T01:43:27;1.73;;;1.63;;
10677;SDS011;5387;48.722;9.110;2023-07-29T01:45:54;1.75;;;1.58;;
10677;SDS011;5387;48.722;9.110;2023-07-29T01:48:21;1.20;;;1.20;;
10677;SDS011;5387;48.722;9.110;2023-07-29T01:50:48;1.95;;;1.58;;
10677;SDS011;5387;48.722;9.110;2023-07-29T01:53:14;1.58;;;1.48;;
10677;SDS011;5387;48.722;9.110;2023-07-29T01:55:43;1.58;;;1.48;;
10677;SDS011;5387;48.722;9.110;2023-07-29T01:58:10;1.70;;;1.42;;
10677;SDS011;5387;48.722;9.110;2023-07-29T02:00:37;1.95;;;1.60;;
10677;SDS011;5387;48.722;9.110;2023-07-29T02:03:04;5.32;;;1.67;;
10677;SDS011;5387;48.722;9.110;2023-07-29T02:05:31;1.70;;;1.60;;
10677;SDS011;5387;48.722;9.110;2023-07-29T02:07:58;1.48;;;1.40;;
10677;SDS011;5387;48.722;9.110;2023-07-29T02:10:25;1.33;;;1.23;;
10677;SDS011;5387;48.722;9.110;2023-07-29T02:12:53;1.70;;;1.60;;
10677;SDS011;5387;48.722;9.110;2023-07-29T02:15:20;1.70;;;1.60;;
10677;SDS011;5387;48.722;9.110;2023-07-29T02:17:49;1.77;;;1.67;;
10677;SDS011;5387;48.722;9.110;2023-07-29T02:20:17;4.88;;;1.70;;
10677;SDS011;5387;48.722;9.110;2023-07-29T02:22:43;4.10;;;1.70;;
10677;SDS011;5387;48.722;9.110;2023-07-29T02:25:10;1.67;;;1.58;;
10677;SDS011;5387;48.722;9.110;2023-07-29T02:27:37;1.88;;;1.38;;
10677;SDS011;5387;48.722;9.110;2023-07-29T02:30:06;4.97;;;1.70;;
10677;SDS011;5387;48.722;9.110;2023-07-29T02:32:34;2.90;;;1.60;;
10677;SDS011;5387;48.722;9.110;2023-07-29T02:35:01;2.05;;;1.95;;
10677;SDS011;5387;48.722;9.110;2023-07-29T02:37:28;2.17;;;1.45;;
10677;SDS011;5387;48.722;9.110;2023-07-29T02:39:55;1.80;;;1.70;;
10677;SDS011;5387;48.722;9.110;2023-07-29T02:42:21;1.48;;;1.38;;
10677;SDS011;5387;48.722;9.110;2023-07-29T02:44:48;1.85;;;1.70;;
10677;SDS011;5387;48.722;9.110;2023-07-29T02:47:17;1.80;;;1.70;;
10677;SDS011;5387;48.722;9.110;2023-07-29T02:49:43;2.90;;;1.73;;
10677;SDS011;5387;48.722;9.110;2023-07-29T02:52:10;2.38;;;1.70;;
10677;SDS011;5387;48.722;9.110;2023-07-29T02:54:37;1.10;;;1.10;;
10677;SDS011;5387;48.722;9.110;2023-07-29T02:57:04;1.75;;;1.48;;
10677;SDS011;5387;48.722;9.110;2023-07-29T02:59:31;1.75;;;1.23;;
10677;SDS011;5387;48.722;9.110;2023-07-29T03:01:57;2.42;;;1.63;;
10677;SDS011;5387;48.722;9.110;2023-07-29T03:04:25;3.67;;;1.75;;
10677;SDS011;5387;48.722;9.110;2023-07-29T03:06:52;1.75;;;1.65;;
10677;SDS011;5387;48.722;9.110;2023-07-29T03:09:19;1.70;;;1.60;;
10677;SDS011;5387;48.722;9.110;2023-07-29T03:11:46;2.00;;;1.83;;
10677;SDS011;5387;48.722;9.110;2023-07-29T03:14:12;4.15;;;1.70;;
10677;SDS011;5387;48.722;9.110;2023-07-29T03:16:39;2.55;;;1.50;;
10677;SDS011;5387;48.722;9.110;2023-07-29T03:19:06;9.60;;;1.60;;
10677;SDS011;5387;48.722;9.110;2023-07-29T03:21:34;1.67;;;1.58;;
10677;SDS011;5387;48.722;9.110;2023-07-29T03:24:01;9.07;;;2.03;;
10677;SDS011;5387;48.722;9.110;2023-07-29T03:26:28;1.98;;;1.88;;
10677;SDS011;5387;48.722;9.110;2023-07-29T03:28:54;1.80;;;1.67;;
10677;SDS011;5387;48.722;9.110;2023-07-29T03:31:21;2.35;;;1.70;;
10677;SDS011;5387;48.722;9.110;2023-07-29T03:33:48;2.00;;;1.80;;
10677;SDS011;5387;48.722;9.110;2023-07-29T03:36:15;1.80;;;1.70;;
10677;SDS011;5387;48.722;9.110;2023-07-29T03:38:43;1.65;;;1.38;;
10677;SDS011;5387;48.722;9.110;2023-07-29T03:41:10;1.60;;;1.50;;
10677;SDS011;5387;48.722;9.110;2023-07-29T03:43:37;2.10;;;1.90;;
10677;SDS011;5387;48.722;9.110;2023-07-29T03:46:04;2.15;;;1.70;;
10677;SDS011;5387;48.722;9.110;2023-07-29T03:48:31;1.70;;;1.60;;
10677;SDS011;5387;48.722;9.110;2023-07-29T03:50:58;2.45;;;2.17;;
10677;SDS011;5387;48.722;9.110;2023-07-29T03:53:25;1.70;;;1.60;;
10677;SDS011;5387;48.722;9.110;2023-07-29T03:55:53;2.05;;;1.75;;
10677;SDS011;5387;48.722;9.110;2023-07-29T03:58:19;3.15;;;2.15;;
10677;SDS011;5387;48.722;9.110;2023-07-29T04:00:46;2.13;;;1.92;;
10677;SDS011;5387;48.722;9.110;2023-07-29T04:03:13;4.50;;;2.28;;
10677;SDS011;5387;48.722;9.110;2023-07-29T04:05:40;4.57;;;2.25;;
10677;SDS011;5387;48.722;9.110;2023-07-29T04:08:07;4.35;;;2.25;;
10677;SDS011;5387;48.722;9.110;2023-07-29T04:10:34;4.28;;;1.73;;
10677;SDS011;5387;48.722;9.110;2023-07-29T04:13:04;1.98;;;1.73;;
10677;SDS011;5387;48.722;9.110;2023-07-29T04:15:31;2.25;;;1.80;;
10677;SDS011;5387;48.722;9.110;2023-07-29T04:17:57;3.50;;;2.10;;
10677;SDS011;5387;48.722;9.110;2023-07-29T04:20:24;2.95;;;2.13;;
10677;SDS011;5387;48.722;9.110;2023-07-29T04:22:51;2.90;;;1.88;;
10677;SDS011;5387;48.722;9.110;2023-07-29T04:25:18;2.65;;;2.33;;
10677;SDS011;5387;48.722;9.110;2023-07-29T04:27:45;2.58;;;2.20;;
10677;SDS011;5387;48.722;9.110;2023-07-29T04:30:13;5.55;;;1.95;;
10677;SDS011;5387;48.722;9.110;2023-07-29T04:32:40;2.40;;;2.05;;
10677;SDS011;5387;48.722;9.110;2023-07-29T04:35:09;4.85;;;2.03;;
10677;SDS011;5387;48.722;9.110;2023-07-29T04:37:36;3.58;;;2.22;;
10677;SDS011;5387;48.722;9.110;2023-07-29T04:40:03;4.63;;;2.20;;
10677;SDS011;5387;48.722;9.110;2023-07-29T04:42:31;2.60;;;2.40;;
10677;SDS011;5387;48.722;9.110;2023-07-29T04:44:58;4.88;;;2.10;;
10677;SDS011;5387;48.722;9.110;2023-07-29T04:47:26;2.55;;;2.35;;
10677;SDS011;5387;48.722;9.110;2023-07-29T04:49:53;5.38;;;1.90;;
10677;SDS011;5387;48.722;9.110;2023-07-29T04:52:19;2.55;;;2.35;;
10677;SDS011;5387;48.722;9.110;2023-07-29T04:54:46;4.75;;;2.28;;
10677;SDS011;5387;48.722;9.110;2023-07-29T04:57:13;4.85;;;2.08;;
10677;SDS011;5387;48.722;9.110;2023-07-29T04:59:39;3.20;;;2.63;;
10677;SDS011;5387;48.722;9.110;2023-07-29T05:02:06;5.20;;;2.42;;
10677;SDS011;5387;48.722;9.110;2023-07-29T05:04:34;2.70;;;2.42;;
10677;SDS011;5387;48.722;9.110;2023-07-29T05:07:01;7.45;;;2.75;;
10677;SDS011;5387;48.722;9.110;2023-07-29T05:09:28;4.53;;;2.53;;
10677;SDS011;5387;48.722;9.110;2023-07-29T05:11:54;2.72;;;2.45;;
10677;SDS011;5387;48.722;9.110;2023-07-29T05:14:21;5.05;;;2.63;;
10677;SDS011;5387;48.722;9.110;2023-07-29T05:16:48;2.58;;;2.00;;
10677;SDS011;5387;48.722;9.110;2023-07-29T05:19:15;6.43;;;2.67;;
10677;SDS011;5387;48.722;9.110;2023-07-29T05:21:44;5.53;;;2.67;;
10677;SDS011;5387;48.722;9.110;2023-07-29T05:24:11;4.32;;;2.65;;
10677;SDS011;5387;48.722;9.110;2023-07-29T05:26:37;2.97;;;2.20;;
10677;SDS011;5387;48.722;9.110;2023-07-29T05:35:48;2.28;;;2.00;;
10677;SDS011;5387;48.722;9.110;2023-07-29T05:38:16;3.30;;;2.42;;
10677;SDS011;5387;48.722;9.110;2023-07-29T05:40:43;3.30;;;2.83;;
10677;SDS011;5387;48.722;9.110;2023-07-29T05:43:10;6.53;;;3.22;;
10677;SDS011;5387;48.722;9.110;2023-07-29T05:45:37;2.90;;;2.60;;
10677;SDS011;5387;48.722;9.110;2023-07-29T05:48:04;9.77;;;2.97;;
10677;SDS011;5387;48.722;9.110;2023-07-29T05:50:30;4.93;;;2.50;;
10677;SDS011;5387;48.722;9.110;2023-07-29T05:52:57;5.05;;;2.67;;
10677;SDS011;5387;48.722;9.110;2023-07-29T05:55:26;3.30;;;2.28;;
10677;SDS011;5387;48.722;9.110;2023-07-29T05:57:52;4.72;;;2.92;;
10677;SDS011;5387;48.722;9.110;2023-07-29T06:00:20;3.90;;;2.50;;
10677;SDS011;5387;48.722;9.110;2023-07-29T06:02:46;2.72;;;2.53;;
10677;SDS011;5387;48.722;9.110;2023-07-29T06:05:13;4.88;;;2.65;;
10677;SDS011;5387;48.722;9.110;2023-07-29T06:07:40;4.65;;;3.00;;
10677;SDS011;5387;48.722;9.110;2023-07-29T06:10:09;2.70;;;2.20;;
10677;SDS011;5387;48.722;9.110;2023-07-29T06:12:38;2.90;;;2.60;;
10677;SDS011;5387;48.722;9.110;2023-07-29T06:15:05;5.50;;;3.00;;
10677;SDS011;5387;48.722;9.110;2023-07-29T06:17:32;2.83;;;2.30;;
10677;SDS011;5387;48.722;9.110;2023-07-29T06:19:59;2.60;;;2.40;;
10677;SDS011;5387;48.722;9.110;2023-07-29T06:22:26;1.98;;;1.88;;
10677;SDS011;5387;48.722;9.110;2023-07-29T06:24:52;2.08;;;1.98;;
10677;SDS011;5387;48.722;9.110;2023-07-29T06:27:19;3.03;;;1.83;;
10677;SDS011;5387;48.722;9.110;2023-07-29T06:29:47;2.47;;;2.20;;
10677;SDS011;5387;48.722;9.110;2023-07-29T06:32:14;3.92;;;2.05;;
10677;SDS011;5387;48.722;9.110;2023-07-29T06:34:41;2.20;;;2.00;;
10677;SDS011;5387;48.722;9.110;2023-07-29T06:37:07;2.45;;;1.83;;
10677;SDS011;5387;48.722;9.110;2023-07-29T06:39:34;2.72;;;1.60;;
10677;SDS011;5387;48.722;9.110;2023-07-29T06:42:01;4.63;;;2.60;;
10677;SDS011;5387;48.722;9.110;2023-07-29T06:44:28;1.63;;;1.52;;
10677;SDS011;5387;48.722;9.110;2023-07-29T06:46:57;2.47;;;1.73;;
10677;SDS011;5387;48.722;9.110;2023-07-29T06:49:24;3.42;;;1.67;;
10677;SDS011;5387;48.722;9.110;2023-07-29T06:55:12;2.00;;;1.83;;
10677;SDS011;5387;48.722;9.110;2023-07-29T06:57:39;2.78;;;1.92;;
10677;SDS011;5387;48.722;9.110;2023-07-29T07:00:07;2.78;;;1.90;;
10677;SDS011;5387;48.722;9.110;2023-07-29T07:02:36;3.55;;;1.90;;
10677;SDS011;5387;48.722;9.110;2023-07-29T07:05:03;2.22;;;1.80;;
10677;SDS011;5387;48.722;9.110;2023-07-29T07:07:30;2.08;;;1.88;;
10677;SDS011;5387;48.722;9.110;2023-07-29T07:09:56;2.35;;;2.15;;
10677;SDS011;5387;48.722;9.110;2023-07-29T07:12:23;3.00;;;1.95;;
10677;SDS011;5387;48.722;9.110;2023-07-29T07:14:50;1.83;;;1.70;;
10677;SDS011;5387;48.722;9.110;2023-07-29T07:17:17;1.65;;;1.55;;
10677;SDS011;5387;48.722;9.110;2023-07-29T07:19:45;2.15;;;1.75;;
10677;SDS011;5387;48.722;9.110;2023-07-29T07:22:12;1.65;;;1.55;;
10677;SDS011;5387;48.722;9.110;2023-07-29T07:24:39;1.55;;;1.45;;
10677;SDS011;5387;48.722;9.110;2023-07-29T07:27:06;1.95;;;1.80;;
10677;SDS011;5387;48.722;9.110;2023-07-29T07:29:32;2.63;;;1.60;;
10677;SDS011;5387;48.722;9.110;2023-07-29T07:31:59;2.25;;;2.05;;
10677;SDS011;5387;48.722;9.110;2023-07-29T07:34:27;2.50;;;2.30;;
10677;SDS011;5387;48.722;9.110;2023-07-29T07:36:55;2.72;;;2.10;;
10677;SDS011;5387;48.722;9.110;2023-07-29T07:39:23;1.88;;;1.70;;
10677;SDS011;5387;48.722;9.110;2023-07-29T07:41:50;1.85;;;1.75;;
10677;SDS011;5387;48.722;9.110;2023-07-29T07:44:16;2.60;;;2.22;;
10677;SDS011;5387;48.722;9.110;2023-07-29T07:46:44;6.50;;;2.00;;
10677;SDS011;5387;48.722;9.110;2023-07-29T07:49:11;1.83;;;1.70;;
10677;SDS011;5387;48.722;9.110;2023-07-29T07:51:38;4.00;;;1.85;;
10677;SDS011;5387;48.722;9.110;2023-07-29T07:54:06;2.30;;;1.90;;
10677;SDS011;5387;48.722;9.110;2023-07-29T07:56:33;2.97;;;2.17;;
10677;SDS011;5387;48.722;9.110;2023-07-29T07:59:00;4.05;;;2.00;;
10677;SDS011;5387;48.722;9.110;2023-07-29T08:01:27;2.38;;;1.52;;
10677;SDS011;5387;48.722;9.110;2023-07-29T08:03:54;1.67;;;1.58;;
10677;SDS011;5387;48.722;9.110;2023-07-29T08:06:20;1.50;;;1.40;;
10677;SDS011;5387;48.722;9.110;2023-07-29T08:08:46;2.05;;;1.60;;
10677;SDS011;5387;48.722;9.110;2023-07-29T08:11:14;5.20;;;1.70;;
10677;SDS011;5387;48.722;9.110;2023-07-29T08:13:41;1.40;;;1.30;;
10677;SDS011;5387;48.722;9.110;2023-07-29T08:16:08;2.78;;;1.20;;
10677;SDS011;5387;48.722;9.110;2023-07-29T08:18:35;5.13;;;1.48;;
10677;SDS011;5387;48.722;9.110;2023-07-29T08:21:02;2.63;;;1.55;;
10677;SDS011;5387;48.722;9.110;2023-07-29T08:23:29;2.47;;;1.48;;
10677;SDS011;5387;48.722;9.110;2023-07-29T08:25:57;1.70;;;1.60;;
10677;SDS011;5387;48.722;9.110;2023-07-29T08:28:28;1.40;;;1.30;;
10677;SDS011;5387;48.722;9.110;2023-07-29T08:30:56;5.82;;;1.30;;
10677;SDS011;5387;48.722;9.110;2023-07-29T08:33:23;2.20;;;1.25;;
10677;SDS011;5387;48.722;9.110;2023-07-29T08:35:50;1.38;;;1.27;;
10677;SDS011;5387;48.722;9.110;2023-07-29T08:38:17;1.50;;;1.40;;
10677;SDS011;5387;48.722;9.110;2023-07-29T08:40:46;1.13;;;1.13;;
10677;SDS011;5387;48.722;9.110;2023-07-29T08:43:18;4.35;;;1.48;;
10677;SDS011;5387;48.722;9.110;2023-07-29T08:45:47;2.15;;;1.25;;
10677;SDS011;5387;48.722;9.110;2023-07-29T08:48:15;1.60;;;1.50;;
10677;SDS011;5387;48.722;9.110;2023-07-29T08:50:48;1.73;;;1.60;;
10677;SDS011;5387;48.722;9.110;2023-07-29T08:53:17;1.15;;;1.15;;
10677;SDS011;5387;48.722;9.110;2023-07-29T08:55:44;1.65;;;1.30;;
10677;SDS011;5387;48.722;9.110;2023-07-29T08:58:11;1.50;;;1.40;;
10677;SDS011;5387;48.722;9.110;2023-07-29T09:00:38;1.67;;;1.58;;
10677;SDS011;5387;48.722;9.110;2023-07-29T09:03:07;3.40;;;1.60;;
10677;SDS011;5387;48.722;9.110;2023-07-29T09:05:33;2.05;;;1.80;;
10677;SDS011;5387;48.722;9.110;2023-07-29T09:08:01;1.83;;;1.73;;
10677;SDS011;5387;48.722;9.110;2023-07-29T09:14:04;2.15;;;1.40;;
10677;SDS011;5387;48.722;9.110;2023-07-29T09:16:31;2.20;;;1.70;;
10677;SDS011;5387;48.722;9.110;2023-07-29T09:19:02;4.05;;;1.67;;
10677;SDS011;5387;48.722;9.110;2023-07-29T09:21:29;4.25;;;1.90;;
10677;SDS011;5387;48.722;9.110;2023-07-29T09:23:56;3.75;;;1.20;;
10677;SDS011;5387;48.722;9.110;2023-07-29T09:26:23;2.70;;;1.95;;
10677;SDS011;5387;48.722;9.110;2023-07-29T09:28:51;1.95;;;1.45;;
10677;SDS011;5387;48.722;9.110;2023-07-29T09:31:19;2.05;;;1.95;;
10677;SDS011;5387;48.722;9.110;2023-07-29T09:33:47;3.72;;;1.50;;
10677;SDS011;5387;48.722;9.110;2023-07-29T09:36:16;2.00;;;1.60;;
10677;SDS011;5387;48.722;9.110;2023-07-29T09:38:43;1.70;;;1.60;;
10677;SDS011;5387;48.722;9.110;2023-07-29T09:41:11;1.80;;;1.70;;
10677;SDS011;5387;48.722;9.110;2023-07-29T09:43:39;2.10;;;1.90;;
10677;SDS011;5387;48.722;9.110;2023-07-29T09:46:06;2.47;;;1.45;;
10677;SDS011;5387;48.722;9.110;2023-07-29T09:48:33;1.73;;;1.52;;
10677;SDS011;5387;48.722;9.110;2023-07-29T09:51:09;1.70;;;1.60;;
10677;SDS011;5387;48.722;9.110;2023-07-29T09:53:40;1.77;;;1.67;;
10677;SDS011;5387;48.722;9.110;2023-07-29T09:56:08;1.70;;;1.60;;
10677;SDS011;5387;48.722;9.110;2023-07-29T09:58:35;1.73;;;1.63;;
10677;SDS011;5387;48.722;9.110;2023-07-29T10:01:03;2.42;;;1.40;;
10677;SDS011;5387;48.722;9.110;2023-07-29T10:03:30;2.88;;;1.73;;
10677;SDS011;5387;48.722;9.110;2023-07-29T10:05:59;1.65;;;1.50;;
10677;SDS011;5387;48.722;9.110;2023-07-29T10:08:28;2.42;;;1.52;;
10677;SDS011;5387;48.722;9.110;2023-07-29T10:10:58;1.58;;;1.48;;
10677;SDS011;5387;48.722;9.110;2023-07-29T10:13:26;2.25;;;1.77;;
10677;SDS011;5387;48.722;9.110;2023-07-29T10:15:53;1.77;;;1.63;;
10677;SDS011;5387;48.722;9.110;2023-07-29T10:18:20;1.73;;;1.60;;
10677;SDS011;5387;48.722;9.110;2023-07-29T10:20:48;1.50;;;1.40;;
10677;SDS011;5387;48.722;9.110;2023-07-29T10:23:16;5.18;;;2.13;;
10677;SDS011;5387;48.722;9.110;2023-07-29T10:25:46;1.65;;;1.55;;
10677;SDS011;5387;48.722;9.110;2023-07-29T10:28:17;2.03;;;1.77;;
10677;SDS011;5387;48.722;9.110;2023-07-29T10:30:46;1.38;;;1.30;;
10677;SDS011;5387;48.722;9.110;2023-07-29T10:33:14;1.60;;;1.50;;
10677;SDS011;5387;48.722;9.110;2023-07-29T10:35:41;2.25;;;1.65;;
10677;SDS011;5387;48.722;9.110;2023-07-29T10:38:08;4.82;;;1.75;;
10677;SDS011;5387;48.722;9.110;2023-07-29T10:40:45;1.25;;;1.15;;
10677;SDS011;5387;48.722;9.110;2023-07-29T10:43:15;1.38;;;1.27;;
10677;SDS011;5387;48.722;9.110;2023-07-29T10:45:51;1.73;;;1.63;;
10677;SDS011;5387;48.722;9.110;2023-07-29T10:51:21;1.92;;;1.70;;
10677;SDS011;5387;48.722;9.110;2023-07-29T10:53:51;1.63;;;1.52;;
10677;SDS011;5387;48.722;9.110;2023-07-29T10:56:24;1.60;;;1.50;;
10677;SDS011;5387;48.722;9.110;2023-07-29T10:58:55;1.40;;;1.30;;
10677;SDS011;5387;48.722;9.110;2023-07-29T11:01:27;5.22;;;2.00;;
10677;SDS011;5387;48.722;9.110;2023-07-29T11:04:01;1.58;;;1.48;;
10677;SDS011;5387;48.722;9.110;2023-07-29T11:09:53;1.40;;;1.30;;
10677;SDS011;5387;48.722;9.110;2023-07-29T11:12:34;2.13;;;1.75;;
10677;SDS011;5387;48.722;9.110;2023-07-29T11:15:13;1.23;;;1.23;;
10677;SDS011;5387;48.722;9.110;2023-07-29T11:17:50;1.70;;;1.60;;
10677;SDS011;5387;48.722;9.110;2023-07-29T11:20:19;1.88;;;1.70;;
10677;SDS011;5387;48.722;9.110;2023-07-29T11:22:47;2.67;;;1.63;;
10677;SDS011;5387;48.722;9.110;2023-07-29T11:25:15;1.50;;;1.40;;
10677;SDS011;5387;48.722;9.110;2023-07-29T11:27:43;1.50;;;1.40;;
10677;SDS011;5387;48.722;9.110;2023-07-29T11:30:11;1.70;;;1.60;;
10677;SDS011;5387;48.722;9.110;2023-07-29T11:32:41;1.63;;;1.52;;
10677;SDS011;5387;48.722;9.110;2023-07-29T11:35:09;1.85;;;1.50;;
10677;SDS011;5387;48.722;9.110;2023-07-29T11:37:38;2.47;;;2.00;;
10677;SDS011;5387;48.722;9.110;2023-07-29T11:40:06;2.50;;;1.52;;
10677;SDS011;5387;48.722;9.110;2023-07-29T11:42:35;1.80;;;1.70;;
10677;SDS011;5387;48.722;9.110;2023-07-29T11:45:03;1.55;;;1.45;;
10677;SDS011;5387;48.722;9.110;2023-07-29T11:47:33;1.45;;;1.42;;
10677;SDS011;5387;48.722;9.110;2023-07-29T11:50:02;2.10;;;1.60;;
10677;SDS011;5387;48.722;9.110;2023-07-29T11:52:29;1.85;;;1.75;;
10677;SDS011;5387;48.722;9.110;2023-07-29T11:54:58;2.00;;;1.80;;
10677;SDS011;5387;48.722;9.110;2023-07-29T11:57:26;1.73;;;1.63;;
10677;SDS011;5387;48.722;9.110;2023-07-29T11:59:53;2.28;;;2.05;;
10677;SDS011;5387;48.722;9.110;2023-07-29T12:02:20;1.90;;;1.80;;
10677;SDS011;5387;48.722;9.110;2023-07-29T12:04:49;3.88;;;1.70;;
10677;SDS011;5387;48.722;9.110;2023-07-29T12:07:17;1.70;;;1.60;;
10677;SDS011;5387;48.722;9.110;2023-07-29T12:09:45;1.83;;;1.65;;
10677;SDS011;5387;48.722;9.110;2023-07-29T12:12:12;2.70;;;1.63;;
10677;SDS011;5387;48.722;9.110;2023-07-29T12:14:43;2.72;;;1.95;;
10677;SDS011;5387;48.722;9.110;2023-07-29T12:17:10;2.05;;;1.92;;
10677;SDS011;5387;48.722;9.110;2023-07-29T12:19:38;1.77;;;1.67;;
10677;SDS011;5387;48.722;9.110;2023-07-29T12:22:07;1.50;;;1.40;;
10677;SDS011;5387;48.722;9.110;2023-07-29T12:24:35;5.03;;;1.60;;
10677;SDS011;5387;48.722;9.110;2023-07-29T12:27:03;1.77;;;1.67;;
10677;SDS011;5387;48.722;9.110;2023-07-29T12:29:31;1.98;;;1.88;;
10677;SDS011;5387;48.722;9.110;2023-07-29T12:31:59;1.55;;;1.40;;
10677;SDS011;5387;48.722;9.110;2023-07-29T12:34:27;2.88;;;1.92;;
10677;SDS011;5387;48.722;9.110;2023-07-29T12:36:55;1.83;;;1.73;;
10677;SDS011;5387;48.722;9.110;2023-07-29T12:39:26;2.00;;;1.80;;
10677;SDS011;5387;48.722;9.110;2023-07-29T12:41:54;2.53;;;1.60;;
10677;SDS011;5387;48.722;9.110;2023-07-29T12:44:23;3.97;;;1.63;;
10677;SDS011;5387;48.722;9.110;2023-07-29T12:46:51;4.00;;;1.60;;
10677;SDS011;5387;48.722;9.110;2023-07-29T12:49:18;4.10;;;1.70;;
10677;SDS011;5387;48.722;9.110;2023-07-29T12:51:45;1.80;;;1.70;;
10677;SDS011;5387;48.722;9.110;2023-07-29T12:54:12;1.77;;;1.60;;
10677;SDS011;5387;48.722;9.110;2023-07-29T12:56:40;2.28;;;2.08;;
10677;SDS011;5387;48.722;9.110;2023-07-29T12:59:07;1.80;;;1.70;;
10677;SDS011;5387;48.722;9.110;2023-07-29T13:01:33;2.00;;;1.90;;
10677;SDS011;5387;48.722;9.110;2023-07-29T13:04:00;1.50;;;1.40;;
10677;SDS011;5387;48.722;9.110;2023-07-29T13:06:27;2.25;;;1.60;;
10677;SDS011;5387;48.722;9.110;2023-07-29T13:08:54;2.58;;;1.50;;
10677;SDS011;5387;48.722;9.110;2023-07-29T13:11:23;1.60;;;1.50;;
10677;SDS011;5387;48.722;9.110;2023-07-29T13:13:52;1.48;;;1.38;;
10677;SDS011;5387;48.722;9.110;2023-07-29T13:16:19;1.98;;;1.85;;
10677;SDS011;5387;48.722;9.110;2023-07-29T13:18:46;1.63;;;1.52;;
10677;SDS011;5387;48.722;9.110;2023-07-29T13:21:12;1.60;;;1.50;;
10677;SDS011;5387;48.722;9.110;2023-07-29T13:23:39;2.67;;;1.65;;
10677;SDS011;5387;48.722;9.110;2023-07-29T13:26:06;1.88;;;1.77;;
10677;SDS011;5387;48.722;9.110;2023-07-29T13:28:33;1.60;;;1.50;;
10677;SDS011;5387;48.722;9.110;2023-07-29T13:31:01;2.20;;;1.70;;
10677;SDS011;5387;48.722;9.110;2023-07-29T13:33:29;1.52;;;1.42;;
10677;SDS011;5387;48.722;9.110;2023-07-29T13:35:58;2.30;;;1.63;;
10677;SDS011;5387;48.722;9.110;2023-07-29T13:38:25;1.55;;;1.45;;
10677;SDS011;5387;48.722;9.110;2023-07-29T13:40:52;1.60;;;1.50;;
10677;SDS011;5387;48.722;9.110;2023-07-29T13:43:19;2.63;;;1.85;;
10677;SDS011;5387;48.722;9.110;2023-07-29T13:45:46;1.40;;;1.30;;
10677;SDS011;5387;48.722;9.110;2023-07-29T13:48:15;3.05;;;1.90;;
10677;SDS011;5387;48.722;9.110;2023-07-29T13:50:42;1.90;;;1.80;;
10677;SDS011;5387;48.722;9.110;2023-07-29T13:53:09;1.80;;;1.70;;
10677;SDS011;5387;48.722;9.110;2023-07-29T13:55:36;4.13;;;1.73;;
10677;SDS011;5387;48.722;9.110;2023-07-29T13:58:03;1.50;;;1.40;;
10677;SDS011;5387;48.722;9.110;2023-07-29T14:00:29;2.65;;;1.70;;
10677;SDS011;5387;48.722;9.110;2023-07-29T14:02:56;1.70;;;1.60;;
10677;SDS011;5387;48.722;9.110;2023-07-29T14:05:24;1.38;;;1.38;;
10677;SDS011;5387;48.722;9.110;2023-07-29T14:07:51;1.55;;;1.45;;
10677;SDS011;5387;48.722;9.110;2023-07-29T14:10:18;1.83;;;1.60;;
10677;SDS011;5387;48.722;9.110;2023-07-29T14:12:44;1.95;;;1.75;;
10677;SDS011;5387;48.722;9.110;2023-07-29T14:15:11;1.70;;;1.60;;
10677;SDS011;5387;48.722;9.110;2023-07-29T14:17:38;2.42;;;1.70;;
10677;SDS011;5387;48.722;9.110;2023-07-29T14:20:05;1.52;;;1.42;;
10677;SDS011;5387;48.722;9.110;2023-07-29T14:22:35;1.70;;;1.60;;
10677;SDS011;5387;48.722;9.110;2023-07-29T14:25:02;1.80;;;1.70;;
10677;SDS011;5387;48.722;9.110;2023-07-29T14:27:29;3.15;;;1.58;;
10677;SDS011;5387;48.722;9.110;2023-07-29T14:29:56;1.90;;;1.80;;
10677;SDS011;5387;48.722;9.110;2023-07-29T14:32:23;1.92;;;1.70;;
10677;SDS011;5387;48.722;9.110;2023-07-29T14:34:49;2.13;;;1.92;;
10677;SDS011;5387;48.722;9.110;2023-07-29T14:37:16;1.60;;;1.50;;
10677;SDS011;5387;48.722;9.110;2023-07-29T14:39:44;2.15;;;1.80;;
10677;SDS011;5387;48.722;9.110;2023-07-29T14:42:11;1.80;;;1.70;;
10677;SDS011;5387;48.722;9.110;2023-07-29T14:44:39;2.17;;;1.90;;
10677;SDS011;5387;48.722;9.110;2023-07-29T14:47:07;1.60;;;1.50;;
10677;SDS011;5387;48.722;9.110;2023-07-29T14:49:34;2.10;;;1.90;;
10677;SDS011;5387;48.722;9.110;2023-07-29T14:52:01;2.05;;;1.85;;
10677;SDS011;5387;48.722;9.110;2023-07-29T14:54:27;2.08;;;1.85;;
10677;SDS011;5387;48.722;9.110;2023-07-29T14:56:55;4.03;;;1.77;;
10677;SDS011;5387;48.722;9.110;2023-07-29T14:59:22;2.17;;;1.98;;
10677;SDS011;5387;48.722;9.110;2023-07-29T15:01:49;3.60;;;2.50;;
10677;SDS011;5387;48.722;9.110;2023-07-29T15:04:16;1.83;;;1.67;;
10677;SDS011;5387;48.722;9.110;2023-07-29T15:06:43;1.73;;;1.60;;
10677;SDS011;5387;48.722;9.110;2023-07-29T15:09:09;2.35;;;1.88;;
10677;SDS011;5387;48.722;9.110;2023-07-29T15:11:36;1.90;;;1.80;;
10677;SDS011;5387;48.722;9.110;2023-07-29T15:14:04;1.60;;;1.50;;
10677;SDS011;5387;48.722;9.110;2023-07-29T15:16:31;2.40;;;1.70;;
10677;SDS011;5387;48.722;9.110;2023-07-29T15:19:00;1.85;;;1.75;;
10677;SDS011;5387;48.722;9.110;2023-07-29T15:21:27;2.25;;;1.92;;
10677;SDS011;5387;48.722;9.110;2023-07-29T15:23:54;1.67;;;1.58;;